createdAt,value
2022-10-24T10:14:01.646Z,92.90
2022-10-24T10:15:26.844Z,92.52
2022-10-24T10:16:36.513Z,92.79
2022-10-24T10:47:56.381Z,90.45
2022-10-24T10:49:24.166Z,89.56
2022-10-24T11:29:02.269Z,87.60
2022-10-24T11:30:03.648Z,87.61
2022-10-24T11:31:18.570Z,87.80
2022-10-24T11:47:25.830Z,87.04
2022-10-24T11:49:09.932Z,87.40
2022-10-24T12:35:49.528Z,85.61
2022-10-24T12:37:12.076Z,84.98
2022-10-24T12:38:28.648Z,84.67
2022-10-24T12:39:32.502Z,84.73
2022-10-24T12:40:51.611Z,84.48
2022-10-24T12:41:55.398Z,84.45
2022-10-24T12:42:56.965Z,83.92
2022-10-24T12:44:37.621Z,83.78
2022-10-24T12:45:39.396Z,83.65
2022-10-24T12:46:40.697Z,83.23
2022-10-24T12:47:43.699Z,83.53
2022-10-24T12:49:08.070Z,82.95
2022-10-24T12:50:21.539Z,83.20
2022-10-24T12:51:37.202Z,82.66
2022-10-24T12:52:38.657Z,82.49
2022-10-24T12:54:03.716Z,82.42
2022-10-24T12:55:39.431Z,81.89
2022-10-24T12:56:49.978Z,81.94
2022-10-24T12:57:51.392Z,82.66
2022-10-24T12:59:18.112Z,82.22
2022-10-24T13:11:02.081Z,81.60
2022-10-24T13:12:42.337Z,80.34
2022-10-24T13:14:02.999Z,80.64
2022-10-24T13:15:20.973Z,80.52
2022-10-24T13:16:34.783Z,80.83
2022-10-24T13:17:41.904Z,80.71
2022-10-24T13:18:57.669Z,80.78
2022-10-24T13:20:17.093Z,80.49
2022-10-24T13:21:24.238Z,80.14
2022-10-24T13:22:32.176Z,80.93
2022-10-24T13:23:33.837Z,80.33
2022-10-24T13:24:40.585Z,80.25
2022-10-24T13:31:06.290Z,80.84
2022-10-24T13:32:07.784Z,80.41
2022-10-24T13:33:31.973Z,80.77
2022-10-24T13:34:58.182Z,81.37
2022-10-24T13:36:08.825Z,81.13
2022-10-24T13:37:10.105Z,80.99
2022-10-24T13:38:14.313Z,81.15
2022-10-24T13:39:20.897Z,81.25
2022-10-24T13:40:33.192Z,81.33
2022-10-24T13:41:38.746Z,80.69
2022-10-24T13:42:53.774Z,80.54
2022-10-24T13:44:00.726Z,80.08
2022-10-24T13:45:07.133Z,80.51
2022-10-24T13:46:13.228Z,79.81
2022-10-24T13:47:41.839Z,79.05
2022-10-24T13:48:48.765Z,79.59
2022-10-24T13:49:57.510Z,79.46
2022-10-24T13:51:23.716Z,78.54
2022-10-24T13:52:36.376Z,78.32
2022-10-24T13:53:50.463Z,78.49
2022-10-24T13:55:12.933Z,79.17
2022-10-24T13:56:15.002Z,78.72
2022-10-24T13:57:28.618Z,78.77
2022-10-24T13:58:40.985Z,77.94
2022-10-24T13:59:48.267Z,77.57
2022-10-24T14:07:36.441Z,75.59
2022-10-24T14:08:50.860Z,75.86
2022-10-24T14:10:07.080Z,75.78
2022-10-24T14:11:14.103Z,75.22
2022-10-24T14:12:24.900Z,73.48
2022-10-24T14:19:03.535Z,71.56
2022-10-24T14:20:14.376Z,69.75
2022-10-24T14:21:22.648Z,69.02
2022-10-24T14:22:34.728Z,67.70
2022-10-24T14:23:40.325Z,68.91
2022-10-24T14:24:44.012Z,68.69
2022-10-24T14:25:46.442Z,68.70
2022-10-24T14:26:51.491Z,68.65
2022-10-24T14:28:02.358Z,70.21
2022-10-24T14:29:03.925Z,70.00
2022-10-24T14:30:06.085Z,69.88
2022-10-24T14:31:19.208Z,69.21
2022-10-24T14:32:20.841Z,67.97
2022-10-24T14:33:23.776Z,68.56
2022-10-24T14:34:25.738Z,67.62
2022-10-24T14:35:27.210Z,67.44
2022-10-24T14:36:31.534Z,66.87
2022-10-24T14:37:36.001Z,67.18
2022-10-24T14:38:37.680Z,67.74
2022-10-24T14:39:39.738Z,68.01
2022-10-24T14:40:43.266Z,67.47
2022-10-24T14:41:44.742Z,68.21
2022-10-24T14:42:47.188Z,67.97
2022-10-24T14:43:48.750Z,68.29
2022-10-24T14:44:54.844Z,68.91
2022-10-24T14:46:12.773Z,69.35
2022-10-24T14:47:29.196Z,69.79
2022-10-24T14:48:30.684Z,69.55
2022-10-24T14:49:40.789Z,70.40
2022-10-24T14:50:47.116Z,71.60
2022-10-24T14:52:54.673Z,70.65
2022-10-24T14:53:57.391Z,69.86
2022-10-24T14:55:03.119Z,70.38
2022-10-24T14:56:16.350Z,70.27
2022-10-24T14:57:20.610Z,70.01
2022-10-24T14:58:25.297Z,70.73
2022-10-24T14:59:35.667Z,70.10
2022-10-24T15:00:39.346Z,69.83
2022-10-24T15:01:40.840Z,70.76
2022-10-24T15:02:43.502Z,69.65
2022-10-24T15:03:59.042Z,69.69
2022-10-24T15:05:19.113Z,70.05
2022-10-24T15:06:26.691Z,70.19
2022-10-24T15:13:02.433Z,70.44
2022-10-24T15:14:07.317Z,70.86
2022-10-24T15:15:33.980Z,70.19
2022-10-24T15:16:39.141Z,71.00
2022-10-24T15:17:40.642Z,70.21
2022-10-24T15:18:43.217Z,70.98
2022-10-24T15:25:06.053Z,74.70
2022-10-24T15:26:46.403Z,75.88
2022-10-24T15:27:48.065Z,76.61
2022-10-24T15:29:05.530Z,77.40
2022-10-24T15:30:19.998Z,77.89
2022-10-24T15:31:22.406Z,78.02
2022-10-24T15:32:24.283Z,79.39
2022-10-24T15:33:25.707Z,79.23
2022-10-24T15:34:27.738Z,79.75
2022-10-24T15:35:33.703Z,79.68
2022-10-24T15:36:39.249Z,80.67
2022-10-24T15:37:54.766Z,80.01
2022-10-24T15:38:59.070Z,80.56
2022-10-24T15:40:07.206Z,80.45
2022-10-24T15:41:09.196Z,80.90
2022-10-24T15:42:11.312Z,80.96
2022-10-24T15:43:13.996Z,80.84
2022-10-24T15:44:26.689Z,80.88
2022-10-24T15:45:28.517Z,81.78
2022-10-24T15:46:30.345Z,81.41
2022-10-24T15:47:31.816Z,81.48
2022-10-24T15:48:33.200Z,81.97
2022-10-24T16:01:05.948Z,83.48
2022-10-24T16:02:18.716Z,83.72
2022-10-24T16:03:26.480Z,83.20
2022-10-24T16:04:28.005Z,83.85
2022-10-24T16:05:33.893Z,83.33
2022-10-24T16:06:35.267Z,85.04
2022-10-24T16:07:36.659Z,85.02
2022-10-24T16:08:41.886Z,85.19
2022-10-24T16:09:43.266Z,85.96
2022-10-24T16:10:45.277Z,86.75
2022-10-24T16:11:47.277Z,87.98
2022-10-24T16:12:50.193Z,88.27
2022-10-24T16:13:51.856Z,88.25
2022-10-24T16:14:53.211Z,89.48
2022-10-24T16:15:54.608Z,90.56
2022-10-24T16:16:56.506Z,91.37
2022-10-24T16:17:59.841Z,91.20
2022-10-24T16:19:01.213Z,91.42
2022-10-24T16:31:24.522Z,90.99
2022-10-24T16:32:26.043Z,92.45
2022-10-24T16:33:27.412Z,93.10
2022-10-24T16:34:29.008Z,94.42
2022-10-24T16:35:33.428Z,94.51
2022-10-24T16:36:35.008Z,95.98
